createdAt,value
2023-05-11T00:04:07.938Z,80.05
2023-05-11T00:16:08.384Z,82.27
2023-05-11T00:28:08.772Z,80.52
2023-05-11T00:40:09.225Z,80.08
2023-05-11T00:52:09.672Z,81.85
2023-05-11T01:04:10.142Z,82.66
2023-05-11T01:16:10.680Z,84.57
2023-05-11T01:28:11.052Z,82.88
2023-05-11T01:40:11.492Z,82.55
2023-05-11T01:52:11.980Z,82.51
2023-05-11T02:04:12.419Z,82.54
2023-05-11T02:16:12.905Z,83.12
2023-05-11T02:28:13.294Z,83.94
2023-05-11T02:40:13.766Z,85.34
2023-05-11T02:52:14.220Z,84.11
2023-05-11T03:04:14.694Z,83.93
2023-05-11T03:16:15.178Z,85.50
2023-05-11T03:28:15.599Z,85.14
2023-05-11T03:40:16.121Z,87.16
2023-05-11T03:52:16.481Z,85.19
2023-05-11T04:04:16.959Z,84.79
2023-05-11T04:16:17.440Z,84.84
2023-05-11T04:28:17.858Z,83.82
2023-05-11T04:40:18.528Z,83.58
2023-05-11T04:52:18.736Z,83.26
2023-05-11T05:04:19.433Z,84.89
2023-05-11T05:16:19.652Z,83.22
2023-05-11T05:28:20.117Z,78.92
2023-05-11T05:40:20.894Z,76.72
2023-05-11T05:52:21.019Z,74.35
2023-05-11T06:04:21.524Z,73.38
2023-05-11T06:16:21.984Z,70.89
2023-05-11T06:28:22.357Z,67.14
2023-05-11T06:40:22.830Z,67.22
2023-05-11T06:52:23.238Z,68.24
2023-05-11T07:04:23.840Z,65.83
2023-05-11T07:16:24.231Z,64.91
2023-05-11T07:28:24.691Z,62.68
2023-05-11T07:40:25.148Z,58.45
2023-05-11T07:52:25.587Z,61.29
2023-05-11T08:04:26.004Z,59.62
2023-05-11T08:16:26.529Z,61.15
2023-05-11T08:28:26.952Z,58.56
2023-05-11T08:40:27.376Z,62.07
2023-05-11T08:52:27.829Z,61.20
2023-05-11T09:04:28.438Z,57.23
2023-05-11T09:16:36.740Z,57.07
2023-05-11T09:52:30.147Z,55.73
2023-05-11T10:04:30.687Z,55.21
2023-05-11T10:16:31.105Z,51.68
2023-05-11T10:28:31.476Z,51.67
2023-05-11T10:40:31.919Z,52.52
2023-05-11T10:52:32.379Z,52.46
2023-05-11T11:04:32.819Z,51.17
2023-05-11T11:16:33.301Z,52.43
2023-05-11T11:28:33.773Z,50.91
2023-05-11T11:40:43.233Z,49.18
2023-05-11T11:52:34.624Z,48.94
2023-05-11T12:04:35.119Z,49.33
2023-05-11T12:16:35.652Z,51.94
2023-05-11T12:28:36.003Z,49.56
2023-05-11T12:40:36.458Z,48.04
2023-05-11T12:52:36.903Z,47.87
2023-05-11T13:04:37.410Z,49.06
2023-05-11T13:16:37.890Z,51.93
2023-05-11T13:28:38.264Z,51.13
2023-05-11T13:40:38.743Z,53.85
2023-05-11T13:52:39.201Z,50.38
2023-05-11T14:04:39.649Z,50.36
2023-05-11T14:16:40.091Z,49.10
2023-05-11T14:28:40.552Z,48.67
2023-05-11T14:40:41.028Z,47.02
2023-05-11T14:52:41.488Z,50.13
2023-05-11T15:04:41.898Z,57.50
2023-05-11T15:16:42.489Z,63.71
2023-05-11T15:28:42.873Z,70.54
2023-05-11T15:40:43.262Z,76.62
2023-05-11T15:52:43.725Z,87.13
2023-05-11T16:04:44.186Z,83.36
2023-05-11T16:16:44.695Z,84.29
2023-05-11T16:28:45.084Z,84.55
2023-05-11T16:40:45.521Z,85.01
2023-05-11T16:52:45.987Z,89.33
2023-05-11T17:04:46.510Z,90.95
2023-05-11T17:16:46.933Z,89.43
2023-05-11T17:28:47.382Z,89.39
2023-05-11T17:40:47.824Z,87.76
2023-05-11T17:52:50.781Z,89.67
2023-05-11T18:04:48.720Z,91.26
2023-05-11T18:16:49.164Z,92.08
2023-05-11T18:28:49.614Z,93.19
2023-05-11T18:40:50.121Z,95.45
2023-05-11T18:52:50.534Z,95.28
2023-05-11T19:04:50.986Z,96.37
2023-05-11T19:16:51.478Z,98.02
2023-05-11T19:28:51.922Z,97.44
2023-05-11T19:40:52.778Z,99.04
2023-05-11T19:52:52.791Z,98.71
2023-05-11T20:04:53.244Z,100.00
2023-05-11T20:16:53.721Z,100.00
2023-05-11T20:28:54.162Z,100.00
2023-05-11T20:40:54.611Z,100.00
2023-05-11T20:52:55.050Z,100.00
2023-05-11T21:04:55.541Z,100.00
2023-05-11T21:16:56.006Z,100.00
2023-05-11T21:28:56.427Z,100.00
2023-05-11T21:40:56.890Z,100.00
2023-05-11T21:52:57.333Z,100.00
2023-05-11T22:04:57.778Z,100.00
2023-05-11T22:16:58.231Z,100.00
2023-05-11T22:28:58.692Z,100.00
2023-05-11T22:40:59.142Z,100.00
2023-05-11T22:52:59.592Z,100.00
2023-05-11T23:05:00.030Z,100.00
2023-05-11T23:17:00.525Z,100.00
2023-05-11T23:29:01.023Z,100.00
2023-05-11T23:41:01.424Z,100.00
2023-05-11T23:53:01.887Z,100.00
